sensor_id;sensor_type;location;lat;lon;timestamp;P1;durP1;ratioP1;P2;durP2;ratioP2
54787;SDS011;59598;48.112;16.280;2023-02-14T00:01:29;8.95;;;4.88;;
54787;SDS011;59598;48.112;16.280;2023-02-14T00:04:02;7.18;;;4.28;;
54787;SDS011;59598;48.112;16.280;2023-02-14T00:06:34;6.88;;;4.05;;
54787;SDS011;59598;48.112;16.280;2023-02-14T00:09:12;8.68;;;5.00;;
54787;SDS011;59598;48.112;16.280;2023-02-14T00:11:45;9.00;;;4.40;;
54787;SDS011;59598;48.112;16.280;2023-02-14T00:14:17;9.85;;;4.93;;
54787;SDS011;59598;48.112;16.280;2023-02-14T00:17:07;9.93;;;4.97;;
54787;SDS011;59598;48.112;16.280;2023-02-14T00:19:38;6.88;;;4.70;;
54787;SDS011;59598;48.112;16.280;2023-02-14T00:22:09;6.82;;;4.65;;
54787;SDS011;59598;48.112;16.280;2023-02-14T00:24:40;7.32;;;5.15;;
54787;SDS011;59598;48.112;16.280;2023-02-14T00:27:12;9.02;;;4.95;;
54787;SDS011;59598;48.112;16.280;2023-02-14T00:29:43;6.88;;;4.85;;
54787;SDS011;59598;48.112;16.280;2023-02-14T00:32:14;10.13;;;5.20;;
54787;SDS011;59598;48.112;16.280;2023-02-14T00:34:45;9.35;;;5.32;;
54787;SDS011;59598;48.112;16.280;2023-02-14T00:37:16;7.90;;;5.00;;
54787;SDS011;59598;48.112;16.280;2023-02-14T00:39:48;7.07;;;4.28;;
54787;SDS011;59598;48.112;16.280;2023-02-14T00:42:20;11.63;;;5.70;;
54787;SDS011;59598;48.112;16.280;2023-02-14T00:44:57;10.40;;;5.25;;
54787;SDS011;59598;48.112;16.280;2023-02-14T00:47:28;7.63;;;4.38;;
54787;SDS011;59598;48.112;16.280;2023-02-14T00:50:00;8.85;;;4.25;;
54787;SDS011;59598;48.112;16.280;2023-02-14T00:52:37;7.82;;;4.32;;
54787;SDS011;59598;48.112;16.280;2023-02-14T00:55:10;8.83;;;4.87;;
54787;SDS011;59598;48.112;16.280;2023-02-14T00:57:43;6.88;;;4.13;;
54787;SDS011;59598;48.112;16.280;2023-02-14T01:00:14;8.30;;;4.47;;
54787;SDS011;59598;48.112;16.280;2023-02-14T01:02:46;9.52;;;4.45;;
54787;SDS011;59598;48.112;16.280;2023-02-14T01:05:18;7.55;;;4.43;;
54787;SDS011;59598;48.112;16.280;2023-02-14T01:07:49;7.65;;;4.90;;
54787;SDS011;59598;48.112;16.280;2023-02-14T01:10:20;8.95;;;5.38;;
54787;SDS011;59598;48.112;16.280;2023-02-14T01:12:51;8.15;;;4.20;;
54787;SDS011;59598;48.112;16.280;2023-02-14T01:15:29;6.00;;;3.95;;
54787;SDS011;59598;48.112;16.280;2023-02-14T01:18:01;9.07;;;4.85;;
54787;SDS011;59598;48.112;16.280;2023-02-14T01:20:34;8.35;;;4.72;;
54787;SDS011;59598;48.112;16.280;2023-02-14T01:23:06;8.30;;;4.82;;
54787;SDS011;59598;48.112;16.280;2023-02-14T01:25:40;7.55;;;4.35;;
54787;SDS011;59598;48.112;16.280;2023-02-14T01:28:12;7.57;;;4.45;;
54787;SDS011;59598;48.112;16.280;2023-02-14T01:30:45;9.20;;;4.38;;
54787;SDS011;59598;48.112;16.280;2023-02-14T01:33:18;11.90;;;5.40;;
54787;SDS011;59598;48.112;16.280;2023-02-14T01:35:49;9.05;;;4.45;;
54787;SDS011;59598;48.112;16.280;2023-02-14T01:38:23;6.57;;;4.13;;
54787;SDS011;59598;48.112;16.280;2023-02-14T01:40:54;8.77;;;5.10;;
54787;SDS011;59598;48.112;16.280;2023-02-14T01:43:26;7.88;;;4.82;;
54787;SDS011;59598;48.112;16.280;2023-02-14T01:45:57;9.13;;;4.80;;
54787;SDS011;59598;48.112;16.280;2023-02-14T01:48:28;9.23;;;4.72;;
54787;SDS011;59598;48.112;16.280;2023-02-14T01:50:59;10.35;;;5.82;;
54787;SDS011;59598;48.112;16.280;2023-02-14T01:53:31;11.13;;;5.57;;
54787;SDS011;59598;48.112;16.280;2023-02-14T01:56:04;8.52;;;5.15;;
54787;SDS011;59598;48.112;16.280;2023-02-14T01:58:42;7.60;;;4.88;;
54787;SDS011;59598;48.112;16.280;2023-02-14T02:01:18;10.55;;;4.97;;
54787;SDS011;59598;48.112;16.280;2023-02-14T02:03:53;9.55;;;5.32;;
54787;SDS011;59598;48.112;16.280;2023-02-14T02:06:48;9.90;;;5.18;;
54787;SDS011;59598;48.112;16.280;2023-02-14T02:12:04;8.32;;;5.20;;
54787;SDS011;59598;48.112;16.280;2023-02-14T02:14:35;8.30;;;5.18;;
54787;SDS011;59598;48.112;16.280;2023-02-14T02:22:51;11.73;;;5.57;;
54787;SDS011;59598;48.112;16.280;2023-02-14T02:31:15;9.63;;;5.47;;
54787;SDS011;59598;48.112;16.280;2023-02-14T02:41:56;7.45;;;4.55;;
54787;SDS011;59598;48.112;16.280;2023-02-14T02:50:48;7.32;;;4.35;;
54787;SDS011;59598;48.112;16.280;2023-02-14T02:53:45;10.88;;;5.30;;
54787;SDS011;59598;48.112;16.280;2023-02-14T02:56:33;7.45;;;4.53;;
54787;SDS011;59598;48.112;16.280;2023-02-14T02:59:18;9.45;;;5.57;;
54787;SDS011;59598;48.112;16.280;2023-02-14T03:02:06;8.70;;;4.80;;
54787;SDS011;59598;48.112;16.280;2023-02-14T03:04:46;8.70;;;5.50;;
54787;SDS011;59598;48.112;16.280;2023-02-14T03:07:35;7.57;;;4.68;;
54787;SDS011;59598;48.112;16.280;2023-02-14T03:10:11;14.10;;;5.75;;
54787;SDS011;59598;48.112;16.280;2023-02-14T03:18:38;9.15;;;5.63;;
54787;SDS011;59598;48.112;16.280;2023-02-14T03:30:01;11.35;;;6.40;;
54787;SDS011;59598;48.112;16.280;2023-02-14T03:32:50;13.95;;;6.65;;
54787;SDS011;59598;48.112;16.280;2023-02-14T03:35:50;10.70;;;5.95;;
54787;SDS011;59598;48.112;16.280;2023-02-14T03:41:03;11.40;;;6.40;;
54787;SDS011;59598;48.112;16.280;2023-02-14T03:43:44;10.45;;;6.20;;
54787;SDS011;59598;48.112;16.280;2023-02-14T03:46:33;11.38;;;6.55;;
54787;SDS011;59598;48.112;16.280;2023-02-14T03:49:10;11.00;;;6.30;;
54787;SDS011;59598;48.112;16.280;2023-02-14T03:51:49;10.93;;;6.28;;
54787;SDS011;59598;48.112;16.280;2023-02-14T03:54:24;10.43;;;6.22;;
54787;SDS011;59598;48.112;16.280;2023-02-14T03:59:37;11.85;;;6.28;;
54787;SDS011;59598;48.112;16.280;2023-02-14T04:02:19;15.80;;;7.63;;
54787;SDS011;59598;48.112;16.280;2023-02-14T04:04:58;11.73;;;7.10;;
54787;SDS011;59598;48.112;16.280;2023-02-14T04:07:32;13.30;;;6.78;;
54787;SDS011;59598;48.112;16.280;2023-02-14T04:10:18;10.48;;;6.60;;
54787;SDS011;59598;48.112;16.280;2023-02-14T04:12:50;13.05;;;7.68;;
54787;SDS011;59598;48.112;16.280;2023-02-14T04:15:25;13.70;;;7.35;;
54787;SDS011;59598;48.112;16.280;2023-02-14T04:17:59;15.63;;;8.23;;
54787;SDS011;59598;48.112;16.280;2023-02-14T04:20:49;16.23;;;8.07;;
54787;SDS011;59598;48.112;16.280;2023-02-14T04:23:20;16.55;;;8.57;;
54787;SDS011;59598;48.112;16.280;2023-02-14T04:25:51;18.35;;;8.93;;
54787;SDS011;59598;48.112;16.280;2023-02-14T04:28:25;14.05;;;8.80;;
54787;SDS011;59598;48.112;16.280;2023-02-14T04:30:59;17.83;;;8.43;;
54787;SDS011;59598;48.112;16.280;2023-02-14T04:33:34;19.05;;;8.27;;
54787;SDS011;59598;48.112;16.280;2023-02-14T04:36:05;19.15;;;8.20;;
54787;SDS011;59598;48.112;16.280;2023-02-14T04:38:39;16.75;;;8.68;;
54787;SDS011;59598;48.112;16.280;2023-02-14T04:41:10;20.02;;;9.45;;
54787;SDS011;59598;48.112;16.280;2023-02-14T04:43:42;20.65;;;9.50;;
54787;SDS011;59598;48.112;16.280;2023-02-14T04:46:15;21.40;;;9.40;;
54787;SDS011;59598;48.112;16.280;2023-02-14T04:48:46;18.40;;;8.88;;
54787;SDS011;59598;48.112;16.280;2023-02-14T04:51:17;21.48;;;9.40;;
54787;SDS011;59598;48.112;16.280;2023-02-14T04:53:49;21.05;;;9.50;;
54787;SDS011;59598;48.112;16.280;2023-02-14T04:56:22;19.38;;;9.25;;
54787;SDS011;59598;48.112;16.280;2023-02-14T04:58:56;21.52;;;8.48;;
54787;SDS011;59598;48.112;16.280;2023-02-14T05:01:28;16.05;;;9.02;;
54787;SDS011;59598;48.112;16.280;2023-02-14T05:04:02;19.27;;;9.80;;
54787;SDS011;59598;48.112;16.280;2023-02-14T05:06:33;15.55;;;8.02;;
54787;SDS011;59598;48.112;16.280;2023-02-14T05:09:04;18.25;;;9.40;;
54787;SDS011;59598;48.112;16.280;2023-02-14T05:11:36;17.17;;;9.38;;
54787;SDS011;59598;48.112;16.280;2023-02-14T05:14:07;19.17;;;8.32;;
54787;SDS011;59598;48.112;16.280;2023-02-14T05:16:39;20.35;;;9.88;;
54787;SDS011;59598;48.112;16.280;2023-02-14T05:19:16;22.73;;;9.80;;
54787;SDS011;59598;48.112;16.280;2023-02-14T05:21:47;17.08;;;7.93;;
54787;SDS011;59598;48.112;16.280;2023-02-14T05:24:20;17.23;;;9.50;;
54787;SDS011;59598;48.112;16.280;2023-02-14T05:26:54;16.88;;;8.55;;
54787;SDS011;59598;48.112;16.280;2023-02-14T05:29:25;18.27;;;9.00;;
54787;SDS011;59598;48.112;16.280;2023-02-14T05:32:02;22.83;;;10.23;;
54787;SDS011;59598;48.112;16.280;2023-02-14T05:34:33;22.08;;;10.00;;
54787;SDS011;59598;48.112;16.280;2023-02-14T05:37:05;18.73;;;9.00;;
54787;SDS011;59598;48.112;16.280;2023-02-14T05:39:36;15.35;;;8.57;;
54787;SDS011;59598;48.112;16.280;2023-02-14T05:42:07;14.55;;;8.38;;
54787;SDS011;59598;48.112;16.280;2023-02-14T05:44:40;19.70;;;8.93;;
54787;SDS011;59598;48.112;16.280;2023-02-14T05:47:13;16.67;;;8.90;;
54787;SDS011;59598;48.112;16.280;2023-02-14T05:49:47;16.00;;;8.10;;
54787;SDS011;59598;48.112;16.280;2023-02-14T05:52:18;19.58;;;8.88;;
54787;SDS011;59598;48.112;16.280;2023-02-14T05:54:49;19.20;;;9.43;;
54787;SDS011;59598;48.112;16.280;2023-02-14T05:57:20;16.83;;;7.05;;
54787;SDS011;59598;48.112;16.280;2023-02-14T05:59:54;14.90;;;8.27;;
54787;SDS011;59598;48.112;16.280;2023-02-14T06:02:27;17.42;;;8.57;;
54787;SDS011;59598;48.112;16.280;2023-02-14T06:04:58;20.55;;;10.05;;
54787;SDS011;59598;48.112;16.280;2023-02-14T06:07:29;20.40;;;9.65;;
54787;SDS011;59598;48.112;16.280;2023-02-14T06:10:01;19.60;;;10.30;;
54787;SDS011;59598;48.112;16.280;2023-02-14T06:15:06;18.77;;;9.45;;
54787;SDS011;59598;48.112;16.280;2023-02-14T06:17:37;18.25;;;9.82;;
54787;SDS011;59598;48.112;16.280;2023-02-14T06:20:09;16.92;;;9.25;;
54787;SDS011;59598;48.112;16.280;2023-02-14T06:22:41;23.17;;;10.07;;
54787;SDS011;59598;48.112;16.280;2023-02-14T06:25:15;18.13;;;9.55;;
54787;SDS011;59598;48.112;16.280;2023-02-14T06:27:46;19.60;;;9.50;;
54787;SDS011;59598;48.112;16.280;2023-02-14T06:30:17;19.10;;;9.52;;
54787;SDS011;59598;48.112;16.280;2023-02-14T06:32:52;18.23;;;10.35;;
54787;SDS011;59598;48.112;16.280;2023-02-14T06:35:24;19.10;;;10.32;;
54787;SDS011;59598;48.112;16.280;2023-02-14T06:37:55;23.20;;;10.35;;
54787;SDS011;59598;48.112;16.280;2023-02-14T06:40:26;17.10;;;9.75;;
54787;SDS011;59598;48.112;16.280;2023-02-14T06:43:03;21.55;;;10.45;;
54787;SDS011;59598;48.112;16.280;2023-02-14T06:45:36;21.88;;;9.35;;
54787;SDS011;59598;48.112;16.280;2023-02-14T06:48:09;22.98;;;10.55;;
54787;SDS011;59598;48.112;16.280;2023-02-14T06:50:45;19.35;;;9.40;;
54787;SDS011;59598;48.112;16.280;2023-02-14T06:53:17;16.73;;;8.60;;
54787;SDS011;59598;48.112;16.280;2023-02-14T06:55:51;18.98;;;9.30;;
54787;SDS011;59598;48.112;16.280;2023-02-14T06:58:23;18.75;;;10.15;;
54787;SDS011;59598;48.112;16.280;2023-02-14T07:00:54;21.55;;;10.63;;
54787;SDS011;59598;48.112;16.280;2023-02-14T07:03:31;19.65;;;10.00;;
54787;SDS011;59598;48.112;16.280;2023-02-14T07:06:02;18.35;;;9.90;;
54787;SDS011;59598;48.112;16.280;2023-02-14T07:08:39;18.15;;;9.63;;
54787;SDS011;59598;48.112;16.280;2023-02-14T07:11:16;17.73;;;9.10;;
54787;SDS011;59598;48.112;16.280;2023-02-14T07:13:47;16.35;;;9.68;;
54787;SDS011;59598;48.112;16.280;2023-02-14T07:16:19;16.73;;;9.45;;
54787;SDS011;59598;48.112;16.280;2023-02-14T07:18:50;16.38;;;8.60;;
54787;SDS011;59598;48.112;16.280;2023-02-14T07:21:23;15.00;;;8.50;;
54787;SDS011;59598;48.112;16.280;2023-02-14T07:23:57;17.08;;;7.85;;
54787;SDS011;59598;48.112;16.280;2023-02-14T07:26:31;13.05;;;8.20;;
54787;SDS011;59598;48.112;16.280;2023-02-14T07:29:04;13.88;;;7.60;;
54787;SDS011;59598;48.112;16.280;2023-02-14T07:31:37;15.05;;;7.78;;
54787;SDS011;59598;48.112;16.280;2023-02-14T07:34:09;13.02;;;7.38;;
54787;SDS011;59598;48.112;16.280;2023-02-14T07:36:40;12.98;;;7.35;;
54787;SDS011;59598;48.112;16.280;2023-02-14T07:39:14;11.65;;;6.85;;
54787;SDS011;59598;48.112;16.280;2023-02-14T07:41:45;13.13;;;6.82;;
54787;SDS011;59598;48.112;16.280;2023-02-14T07:44:16;13.52;;;7.13;;
54787;SDS011;59598;48.112;16.280;2023-02-14T07:46:47;11.90;;;7.75;;
54787;SDS011;59598;48.112;16.280;2023-02-14T07:49:18;14.02;;;7.65;;
54787;SDS011;59598;48.112;16.280;2023-02-14T07:51:52;14.43;;;7.10;;
54787;SDS011;59598;48.112;16.280;2023-02-14T07:54:26;12.57;;;7.13;;
54787;SDS011;59598;48.112;16.280;2023-02-14T07:56:57;12.15;;;7.15;;
54787;SDS011;59598;48.112;16.280;2023-02-14T07:59:28;12.45;;;7.32;;
54787;SDS011;59598;48.112;16.280;2023-02-14T08:01:59;13.93;;;8.02;;
54787;SDS011;59598;48.112;16.280;2023-02-14T08:04:36;14.10;;;6.78;;
54787;SDS011;59598;48.112;16.280;2023-02-14T08:07:07;11.23;;;6.40;;
54787;SDS011;59598;48.112;16.280;2023-02-14T08:09:44;12.80;;;6.90;;
54787;SDS011;59598;48.112;16.280;2023-02-14T08:12:15;14.88;;;6.93;;
54787;SDS011;59598;48.112;16.280;2023-02-14T08:15:25;15.65;;;7.43;;
54787;SDS011;59598;48.112;16.280;2023-02-14T08:18:21;12.50;;;7.07;;
54787;SDS011;59598;48.112;16.280;2023-02-14T08:20:57;12.95;;;7.30;;
54787;SDS011;59598;48.112;16.280;2023-02-14T08:23:31;13.93;;;8.07;;
54787;SDS011;59598;48.112;16.280;2023-02-14T08:26:03;14.63;;;7.68;;
54787;SDS011;59598;48.112;16.280;2023-02-14T08:28:37;13.18;;;6.97;;
54787;SDS011;59598;48.112;16.280;2023-02-14T08:31:09;14.07;;;7.10;;
54787;SDS011;59598;48.112;16.280;2023-02-14T08:33:41;12.75;;;7.63;;
54787;SDS011;59598;48.112;16.280;2023-02-14T08:36:14;14.27;;;7.00;;
54787;SDS011;59598;48.112;16.280;2023-02-14T08:38:47;12.20;;;6.68;;
54787;SDS011;59598;48.112;16.280;2023-02-14T08:41:18;16.58;;;7.18;;
54787;SDS011;59598;48.112;16.280;2023-02-14T08:43:49;11.80;;;6.10;;
54787;SDS011;59598;48.112;16.280;2023-02-14T08:46:21;13.43;;;7.05;;
54787;SDS011;59598;48.112;16.280;2023-02-14T08:48:52;10.30;;;6.40;;
54787;SDS011;59598;48.112;16.280;2023-02-14T08:51:24;10.60;;;6.30;;
54787;SDS011;59598;48.112;16.280;2023-02-14T08:53:58;12.82;;;6.90;;
54787;SDS011;59598;48.112;16.280;2023-02-14T08:56:29;13.63;;;6.90;;
54787;SDS011;59598;48.112;16.280;2023-02-14T08:59:00;13.77;;;6.80;;
54787;SDS011;59598;48.112;16.280;2023-02-14T09:01:34;12.70;;;7.13;;
54787;SDS011;59598;48.112;16.280;2023-02-14T09:04:06;15.77;;;8.07;;
54787;SDS011;59598;48.112;16.280;2023-02-14T09:06:38;14.25;;;7.45;;
54787;SDS011;59598;48.112;16.280;2023-02-14T09:11:43;11.75;;;7.13;;
54787;SDS011;59598;48.112;16.280;2023-02-14T09:14:14;13.68;;;7.05;;
54787;SDS011;59598;48.112;16.280;2023-02-14T09:16:48;12.20;;;7.35;;
54787;SDS011;59598;48.112;16.280;2023-02-14T09:19:20;14.60;;;7.97;;
54787;SDS011;59598;48.112;16.280;2023-02-14T09:21:51;13.35;;;7.25;;
54787;SDS011;59598;48.112;16.280;2023-02-14T09:24:22;13.30;;;7.13;;
54787;SDS011;59598;48.112;16.280;2023-02-14T09:26:59;17.30;;;7.30;;
54787;SDS011;59598;48.112;16.280;2023-02-14T09:32:07;12.80;;;7.35;;
54787;SDS011;59598;48.112;16.280;2023-02-14T09:34:40;12.25;;;7.60;;
54787;SDS011;59598;48.112;16.280;2023-02-14T09:37:13;14.35;;;8.27;;
54787;SDS011;59598;48.112;16.280;2023-02-14T09:40:03;14.63;;;8.15;;
54787;SDS011;59598;48.112;16.280;2023-02-14T09:45:41;15.45;;;8.15;;
54787;SDS011;59598;48.112;16.280;2023-02-14T09:48:30;15.80;;;8.13;;
54787;SDS011;59598;48.112;16.280;2023-02-14T09:51:18;19.15;;;9.50;;
54787;SDS011;59598;48.112;16.280;2023-02-14T09:54:02;18.70;;;9.50;;
54787;SDS011;59598;48.112;16.280;2023-02-14T09:56:53;15.00;;;7.95;;
54787;SDS011;59598;48.112;16.280;2023-02-14T09:59:30;17.35;;;9.23;;
54787;SDS011;59598;48.112;16.280;2023-02-14T10:05:42;15.88;;;8.63;;
54787;SDS011;59598;48.112;16.280;2023-02-14T10:11:14;15.43;;;8.52;;
54787;SDS011;59598;48.112;16.280;2023-02-14T10:16:54;16.13;;;8.38;;
54787;SDS011;59598;48.112;16.280;2023-02-14T10:19:46;19.60;;;9.18;;
54787;SDS011;59598;48.112;16.280;2023-02-14T10:22:22;16.45;;;8.35;;
54787;SDS011;59598;48.112;16.280;2023-02-14T10:25:05;16.63;;;8.15;;
54787;SDS011;59598;48.112;16.280;2023-02-14T10:27:54;15.73;;;8.77;;
54787;SDS011;59598;48.112;16.280;2023-02-14T10:30:37;20.05;;;9.05;;
54787;SDS011;59598;48.112;16.280;2023-02-14T10:33:16;17.30;;;9.02;;
54787;SDS011;59598;48.112;16.280;2023-02-14T10:35:49;14.32;;;8.45;;
54787;SDS011;59598;48.112;16.280;2023-02-14T10:46:46;16.65;;;8.85;;
54787;SDS011;59598;48.112;16.280;2023-02-14T10:52:28;17.27;;;8.07;;
54787;SDS011;59598;48.112;16.280;2023-02-14T10:57:48;20.63;;;9.45;;
54787;SDS011;59598;48.112;16.280;2023-02-14T11:00:24;20.73;;;10.05;;
54787;SDS011;59598;48.112;16.280;2023-02-14T11:03:00;20.60;;;9.75;;
54787;SDS011;59598;48.112;16.280;2023-02-14T11:05:41;16.08;;;9.52;;
54787;SDS011;59598;48.112;16.280;2023-02-14T11:08:28;20.00;;;10.48;;
54787;SDS011;59598;48.112;16.280;2023-02-14T11:13:57;16.58;;;9.60;;
54787;SDS011;59598;48.112;16.280;2023-02-14T11:16:31;16.08;;;9.18;;
54787;SDS011;59598;48.112;16.280;2023-02-14T11:21:46;18.02;;;9.90;;
54787;SDS011;59598;48.112;16.280;2023-02-14T11:27:01;17.13;;;8.70;;
54787;SDS011;59598;48.112;16.280;2023-02-14T11:29:52;17.40;;;9.27;;
54787;SDS011;59598;48.112;16.280;2023-02-14T11:32:27;17.33;;;9.95;;
54787;SDS011;59598;48.112;16.280;2023-02-14T11:37:58;18.05;;;10.10;;
54787;SDS011;59598;48.112;16.280;2023-02-14T11:40:29;17.58;;;8.90;;
54787;SDS011;59598;48.112;16.280;2023-02-14T11:45:41;15.32;;;8.88;;
54787;SDS011;59598;48.112;16.280;2023-02-14T11:48:21;15.95;;;8.90;;
54787;SDS011;59598;48.112;16.280;2023-02-14T11:51:04;17.95;;;9.32;;
54787;SDS011;59598;48.112;16.280;2023-02-14T11:53:46;15.35;;;9.05;;
54787;SDS011;59598;48.112;16.280;2023-02-14T11:56:20;16.60;;;9.85;;
54787;SDS011;59598;48.112;16.280;2023-02-14T11:58:53;20.27;;;9.23;;
54787;SDS011;59598;48.112;16.280;2023-02-14T12:01:31;18.23;;;9.15;;
54787;SDS011;59598;48.112;16.280;2023-02-14T12:04:16;20.65;;;10.18;;
54787;SDS011;59598;48.112;16.280;2023-02-14T12:06:53;14.88;;;8.63;;
54787;SDS011;59598;48.112;16.280;2023-02-14T12:09:28;16.83;;;8.18;;
54787;SDS011;59598;48.112;16.280;2023-02-14T12:12:02;15.73;;;9.40;;
54787;SDS011;59598;48.112;16.280;2023-02-14T12:14:49;16.00;;;9.10;;
54787;SDS011;59598;48.112;16.280;2023-02-14T12:20:02;19.00;;;9.07;;
54787;SDS011;59598;48.112;16.280;2023-02-14T12:22:49;18.23;;;9.93;;
54787;SDS011;59598;48.112;16.280;2023-02-14T12:26:01;19.17;;;10.57;;
54787;SDS011;59598;48.112;16.280;2023-02-14T12:28:34;18.75;;;9.13;;
54787;SDS011;59598;48.112;16.280;2023-02-14T12:31:14;19.02;;;10.52;;
54787;SDS011;59598;48.112;16.280;2023-02-14T12:33:47;15.35;;;9.20;;
54787;SDS011;59598;48.112;16.280;2023-02-14T12:47:38;17.92;;;9.63;;
54787;SDS011;59598;48.112;16.280;2023-02-14T12:58:44;22.05;;;9.95;;
54787;SDS011;59598;48.112;16.280;2023-02-14T13:01:40;17.27;;;9.07;;
54787;SDS011;59598;48.112;16.280;2023-02-14T13:04:32;17.88;;;9.70;;
54787;SDS011;59598;48.112;16.280;2023-02-14T13:07:22;16.58;;;9.00;;
54787;SDS011;59598;48.112;16.280;2023-02-14T13:18:51;17.38;;;9.52;;
54787;SDS011;59598;48.112;16.280;2023-02-14T13:21:45;18.02;;;9.77;;
54787;SDS011;59598;48.112;16.280;2023-02-14T13:26:56;16.20;;;10.07;;
54787;SDS011;59598;48.112;16.280;2023-02-14T13:29:37;15.98;;;8.70;;
54787;SDS011;59598;48.112;16.280;2023-02-14T13:32:15;15.93;;;9.35;;
54787;SDS011;59598;48.112;16.280;2023-02-14T13:34:53;19.10;;;9.63;;
54787;SDS011;59598;48.112;16.280;2023-02-14T13:37:25;17.55;;;9.30;;
54787;SDS011;59598;48.112;16.280;2023-02-14T13:39:59;18.20;;;8.82;;
54787;SDS011;59598;48.112;16.280;2023-02-14T13:53:42;14.20;;;8.18;;
54787;SDS011;59598;48.112;16.280;2023-02-14T13:58:50;16.00;;;8.48;;
54787;SDS011;59598;48.112;16.280;2023-02-14T14:17:42;15.90;;;9.00;;
54787;SDS011;59598;48.112;16.280;2023-02-14T14:22:55;16.63;;;8.85;;
54787;SDS011;59598;48.112;16.280;2023-02-14T14:25:35;18.58;;;9.70;;
54787;SDS011;59598;48.112;16.280;2023-02-14T14:28:16;14.65;;;8.48;;
54787;SDS011;59598;48.112;16.280;2023-02-14T14:30:50;16.98;;;9.32;;
54787;SDS011;59598;48.112;16.280;2023-02-14T14:33:26;20.92;;;9.85;;
54787;SDS011;59598;48.112;16.280;2023-02-14T14:35:59;15.77;;;8.88;;
54787;SDS011;59598;48.112;16.280;2023-02-14T14:38:45;16.98;;;9.82;;
54787;SDS011;59598;48.112;16.280;2023-02-14T14:41:23;19.90;;;9.52;;
54787;SDS011;59598;48.112;16.280;2023-02-14T14:43:58;17.40;;;9.30;;
54787;SDS011;59598;48.112;16.280;2023-02-14T14:49:07;20.50;;;9.73;;
54787;SDS011;59598;48.112;16.280;2023-02-14T14:51:41;17.90;;;9.60;;
54787;SDS011;59598;48.112;16.280;2023-02-14T14:54:14;16.92;;;8.93;;
54787;SDS011;59598;48.112;16.280;2023-02-14T14:56:52;21.58;;;10.65;;
54787;SDS011;59598;48.112;16.280;2023-02-14T14:59:32;15.68;;;9.07;;
54787;SDS011;59598;48.112;16.280;2023-02-14T15:02:26;18.98;;;10.07;;
54787;SDS011;59598;48.112;16.280;2023-02-14T15:07:57;19.70;;;9.60;;
54787;SDS011;59598;48.112;16.280;2023-02-14T15:10:41;20.10;;;9.70;;
54787;SDS011;59598;48.112;16.280;2023-02-14T15:13:17;18.92;;;10.02;;
54787;SDS011;59598;48.112;16.280;2023-02-14T15:16:07;17.33;;;9.13;;
54787;SDS011;59598;48.112;16.280;2023-02-14T15:18:39;18.23;;;9.38;;
54787;SDS011;59598;48.112;16.280;2023-02-14T15:21:10;16.83;;;9.60;;
54787;SDS011;59598;48.112;16.280;2023-02-14T15:23:43;17.50;;;9.43;;
54787;SDS011;59598;48.112;16.280;2023-02-14T15:26:16;18.33;;;10.60;;
54787;SDS011;59598;48.112;16.280;2023-02-14T15:28:55;18.35;;;9.43;;
54787;SDS011;59598;48.112;16.280;2023-02-14T15:31:33;17.05;;;8.68;;
54787;SDS011;59598;48.112;16.280;2023-02-14T15:34:11;20.25;;;10.02;;
54787;SDS011;59598;48.112;16.280;2023-02-14T15:36:45;16.45;;;8.75;;
54787;SDS011;59598;48.112;16.280;2023-02-14T15:39:22;19.13;;;9.73;;
54787;SDS011;59598;48.112;16.280;2023-02-14T15:41:59;19.38;;;10.55;;
54787;SDS011;59598;48.112;16.280;2023-02-14T15:44:34;15.27;;;9.68;;
54787;SDS011;59598;48.112;16.280;2023-02-14T15:47:06;17.92;;;9.82;;
54787;SDS011;59598;48.112;16.280;2023-02-14T15:49:44;18.85;;;10.05;;
54787;SDS011;59598;48.112;16.280;2023-02-14T15:52:17;17.75;;;9.98;;
54787;SDS011;59598;48.112;16.280;2023-02-14T15:54:51;21.40;;;10.30;;
54787;SDS011;59598;48.112;16.280;2023-02-14T15:57:25;20.30;;;10.15;;
54787;SDS011;59598;48.112;16.280;2023-02-14T15:59:59;21.80;;;11.00;;
54787;SDS011;59598;48.112;16.280;2023-02-14T16:05:14;19.05;;;9.57;;
54787;SDS011;59598;48.112;16.280;2023-02-14T16:07:54;17.10;;;10.00;;
54787;SDS011;59598;48.112;16.280;2023-02-14T16:10:33;24.40;;;11.10;;
54787;SDS011;59598;48.112;16.280;2023-02-14T16:13:15;16.63;;;10.25;;
54787;SDS011;59598;48.112;16.280;2023-02-14T16:16:00;20.17;;;10.83;;
54787;SDS011;59598;48.112;16.280;2023-02-14T16:18:34;21.38;;;10.93;;
54787;SDS011;59598;48.112;16.280;2023-02-14T16:26:51;20.65;;;10.23;;
54787;SDS011;59598;48.112;16.280;2023-02-14T16:29:24;24.85;;;11.90;;
54787;SDS011;59598;48.112;16.280;2023-02-14T16:31:55;20.98;;;11.30;;
54787;SDS011;59598;48.112;16.280;2023-02-14T16:34:30;19.20;;;10.32;;
54787;SDS011;59598;48.112;16.280;2023-02-14T16:37:04;22.77;;;11.40;;
54787;SDS011;59598;48.112;16.280;2023-02-14T16:39:38;22.27;;;11.60;;
54787;SDS011;59598;48.112;16.280;2023-02-14T16:42:13;19.47;;;10.53;;
54787;SDS011;59598;48.112;16.280;2023-02-14T16:44:46;22.30;;;10.73;;
54787;SDS011;59598;48.112;16.280;2023-02-14T16:47:18;21.75;;;10.93;;
54787;SDS011;59598;48.112;16.280;2023-02-14T16:49:51;17.60;;;9.98;;
54787;SDS011;59598;48.112;16.280;2023-02-14T16:52:26;21.70;;;11.57;;
54787;SDS011;59598;48.112;16.280;2023-02-14T16:54:58;19.30;;;10.48;;
54787;SDS011;59598;48.112;16.280;2023-02-14T16:57:36;19.50;;;9.98;;
54787;SDS011;59598;48.112;16.280;2023-02-14T17:00:11;22.77;;;11.13;;
54787;SDS011;59598;48.112;16.280;2023-02-14T17:02:45;22.55;;;11.45;;
54787;SDS011;59598;48.112;16.280;2023-02-14T17:05:18;20.95;;;11.07;;
54787;SDS011;59598;48.112;16.280;2023-02-14T17:07:50;20.70;;;10.13;;
54787;SDS011;59598;48.112;16.280;2023-02-14T17:10:26;22.90;;;11.77;;
54787;SDS011;59598;48.112;16.280;2023-02-14T17:12:58;24.52;;;11.63;;
54787;SDS011;59598;48.112;16.280;2023-02-14T17:15:34;20.58;;;9.93;;
54787;SDS011;59598;48.112;16.280;2023-02-14T17:18:08;19.40;;;9.63;;
54787;SDS011;59598;48.112;16.280;2023-02-14T17:20:45;19.10;;;10.43;;
54787;SDS011;59598;48.112;16.280;2023-02-14T17:25:53;20.33;;;9.98;;
54787;SDS011;59598;48.112;16.280;2023-02-14T17:28:27;19.10;;;10.57;;
54787;SDS011;59598;48.112;16.280;2023-02-14T17:31:01;17.90;;;9.50;;
54787;SDS011;59598;48.112;16.280;2023-02-14T17:33:35;20.45;;;10.95;;
54787;SDS011;59598;48.112;16.280;2023-02-14T17:36:07;19.33;;;9.85;;
54787;SDS011;59598;48.112;16.280;2023-02-14T17:38:47;18.63;;;10.77;;
54787;SDS011;59598;48.112;16.280;2023-02-14T17:41:19;19.30;;;10.38;;
54787;SDS011;59598;48.112;16.280;2023-02-14T17:43:54;18.75;;;9.82;;
54787;SDS011;59598;48.112;16.280;2023-02-14T17:46:29;21.30;;;10.20;;
54787;SDS011;59598;48.112;16.280;2023-02-14T17:49:01;22.10;;;11.85;;
54787;SDS011;59598;48.112;16.280;2023-02-14T17:51:32;22.17;;;10.93;;
54787;SDS011;59598;48.112;16.280;2023-02-14T17:54:03;20.48;;;10.20;;
54787;SDS011;59598;48.112;16.280;2023-02-14T17:56:37;24.98;;;10.90;;
54787;SDS011;59598;48.112;16.280;2023-02-14T17:59:08;21.13;;;11.88;;
54787;SDS011;59598;48.112;16.280;2023-02-14T18:01:41;20.52;;;11.00;;
54787;SDS011;59598;48.112;16.280;2023-02-14T18:04:12;20.17;;;9.98;;
54787;SDS011;59598;48.112;16.280;2023-02-14T18:06:43;22.67;;;11.55;;
54787;SDS011;59598;48.112;16.280;2023-02-14T18:09:14;20.65;;;9.90;;